createdAt,value
2022-11-24T00:01:17.925Z,67.78
2022-11-24T00:03:46.614Z,67.47
2022-11-24T00:06:15.864Z,67.73
2022-11-24T00:08:44.486Z,67.63
2022-11-24T00:11:14.160Z,67.36
2022-11-24T00:13:41.486Z,66.90
2022-11-24T00:16:12.305Z,66.59
2022-11-24T00:18:40.289Z,66.79
2022-11-24T00:21:07.446Z,66.27
2022-11-24T00:23:35.202Z,66.12
2022-11-24T00:26:12.014Z,65.98
2022-11-24T00:28:39.669Z,65.72
2022-11-24T00:31:19.103Z,65.96
2022-11-24T00:33:50.604Z,65.53
2022-11-24T00:36:18.819Z,65.24
2022-11-24T00:38:46.190Z,65.47
2022-11-24T00:41:13.449Z,66.16
2022-11-24T00:43:40.357Z,66.15
2022-11-24T00:46:07.145Z,65.60
2022-11-24T00:48:33.920Z,65.86
2022-11-24T00:51:03.182Z,66.26
2022-11-24T00:53:30.388Z,66.37
2022-11-24T00:55:57.338Z,67.02
2022-11-24T00:58:24.824Z,67.03
2022-11-24T01:00:52.417Z,67.35
2022-11-24T01:03:20.707Z,67.54
2022-11-24T01:05:47.390Z,67.25
2022-11-24T01:08:15.295Z,66.88
2022-11-24T01:10:41.933Z,66.96
2022-11-24T01:13:08.650Z,67.01
2022-11-24T01:15:36.307Z,67.12
2022-11-24T01:18:04.154Z,67.13
2022-11-24T01:20:31.492Z,67.12
2022-11-24T01:22:58.218Z,67.07
2022-11-24T01:25:24.953Z,66.83
2022-11-24T01:27:51.904Z,67.00
2022-11-24T01:30:18.673Z,66.86
2022-11-24T01:32:45.362Z,66.82
2022-11-24T01:35:11.987Z,66.47
2022-11-24T01:37:38.707Z,66.76
2022-11-24T01:40:06.097Z,66.56
2022-11-24T01:42:52.515Z,66.34
2022-11-24T01:45:42.292Z,65.74
2022-11-24T01:48:41.067Z,65.46
2022-11-24T01:51:17.413Z,65.26
2022-11-24T01:53:49.152Z,65.28
2022-11-24T01:56:15.968Z,65.50
2022-11-24T01:58:46.583Z,65.51
2022-11-24T02:01:13.689Z,65.73
2022-11-24T02:03:44.034Z,65.70
2022-11-24T02:06:18.817Z,65.61
2022-11-24T02:08:58.145Z,65.78
2022-11-24T02:11:28.517Z,65.87
2022-11-24T02:13:57.141Z,65.84
2022-11-24T02:16:23.868Z,66.07
2022-11-24T02:18:51.172Z,66.04
2022-11-24T02:21:18.352Z,66.58
2022-11-24T02:23:55.784Z,67.34
2022-11-24T02:26:37.748Z,66.97
2022-11-24T02:29:04.410Z,66.98
2022-11-24T02:31:31.273Z,66.90
2022-11-24T02:33:58.284Z,66.88
2022-11-24T02:36:24.969Z,66.97
2022-11-24T02:38:51.594Z,66.81
2022-11-24T02:41:21.784Z,66.78
2022-11-24T02:43:54.424Z,66.55
2022-11-24T02:46:21.475Z,66.92
2022-11-24T02:48:48.257Z,66.98
2022-11-24T02:51:14.938Z,66.85
2022-11-24T02:53:41.620Z,66.81
2022-11-24T02:56:08.223Z,66.78
2022-11-24T02:58:34.816Z,66.53
2022-11-24T03:01:01.408Z,66.25
2022-11-24T03:03:28.190Z,66.01
2022-11-24T03:05:54.891Z,65.97
2022-11-24T03:08:21.651Z,65.71
2022-11-24T03:10:49.173Z,65.47
2022-11-24T03:13:15.963Z,65.26
2022-11-24T03:15:42.694Z,64.83
2022-11-24T03:18:09.512Z,64.60
2022-11-24T03:20:36.317Z,64.50
2022-11-24T03:23:02.947Z,64.37
2022-11-24T03:25:29.594Z,64.05
2022-11-24T03:27:58.320Z,63.72
2022-11-24T03:30:25.065Z,63.73
2022-11-24T03:32:53.693Z,63.74
2022-11-24T03:35:23.824Z,63.65
2022-11-24T03:37:50.476Z,63.65
2022-11-24T03:40:18.123Z,63.51
2022-11-24T03:42:44.792Z,63.25
2022-11-24T03:45:37.900Z,63.32
2022-11-24T03:47:58.056Z,63.02
2022-11-24T03:50:24.685Z,62.98
2022-11-24T03:52:51.323Z,63.04
2022-11-24T03:55:17.973Z,62.94
2022-11-24T03:57:44.609Z,62.80
2022-11-24T04:00:11.968Z,62.64
2022-11-24T04:02:38.748Z,62.78
2022-11-24T04:05:06.265Z,62.75
2022-11-24T04:07:33.030Z,62.46
2022-11-24T04:09:59.696Z,61.97
2022-11-24T04:12:44.653Z,61.69
2022-11-24T04:15:14.345Z,61.75
2022-11-24T04:17:41.112Z,61.41
2022-11-24T04:20:08.890Z,61.42
2022-11-24T04:22:35.917Z,61.40
2022-11-24T04:25:03.493Z,61.62
2022-11-24T04:27:30.162Z,61.42
2022-11-24T04:29:56.883Z,61.29
2022-11-24T04:32:23.697Z,61.37
2022-11-24T04:34:50.316Z,61.33
2022-11-24T04:37:17.031Z,61.09
2022-11-24T04:39:44.891Z,61.02
2022-11-24T04:42:11.557Z,61.11
2022-11-24T04:44:38.597Z,60.60
2022-11-24T04:47:05.644Z,60.31
2022-11-24T04:49:32.649Z,59.88
2022-11-24T04:51:59.379Z,59.75
2022-11-24T04:54:26.071Z,59.93
2022-11-24T04:56:53.148Z,59.78
2022-11-24T04:59:20.189Z,60.02
2022-11-24T05:01:47.612Z,59.78
2022-11-24T05:04:15.820Z,65.29
2022-11-24T05:06:42.901Z,60.05
2022-11-24T05:09:14.654Z,59.50
2022-11-24T05:11:41.995Z,59.43
2022-11-24T05:14:08.695Z,59.90
2022-11-24T05:16:36.010Z,60.24
2022-11-24T05:19:02.792Z,60.15
2022-11-24T05:21:29.408Z,60.12
2022-11-24T05:23:56.063Z,60.05
2022-11-24T05:26:22.724Z,59.54
2022-11-24T05:28:49.391Z,59.05
2022-11-24T05:31:16.104Z,59.01
2022-11-24T05:33:43.352Z,58.59
2022-11-24T05:36:30.307Z,58.49
2022-11-24T05:38:57.308Z,58.49
2022-11-24T05:41:23.910Z,58.21
2022-11-24T05:43:50.533Z,58.24
2022-11-24T05:46:17.330Z,58.32
2022-11-24T05:48:44.159Z,58.12
2022-11-24T05:51:10.740Z,58.06
2022-11-24T05:53:37.415Z,57.68
2022-11-24T05:56:04.906Z,57.52
2022-11-24T05:58:31.662Z,57.30
2022-11-24T06:00:58.328Z,57.32
2022-11-24T06:03:24.943Z,57.25
2022-11-24T06:05:51.604Z,57.22
2022-11-24T06:08:18.280Z,56.95
2022-11-24T06:10:44.835Z,56.97
2022-11-24T06:13:11.500Z,56.82
2022-11-24T06:15:38.611Z,57.14
2022-11-24T06:18:05.261Z,57.07
2022-11-24T06:20:33.124Z,57.12
2022-11-24T06:23:00.573Z,57.01
2022-11-24T06:25:27.688Z,56.68
2022-11-24T06:27:54.332Z,56.66
2022-11-24T06:30:21.017Z,56.97
2022-11-24T06:32:49.920Z,56.46
2022-11-24T06:35:16.909Z,56.33
2022-11-24T06:37:43.646Z,56.14
2022-11-24T06:40:10.617Z,56.19
2022-11-24T06:42:37.675Z,56.24
2022-11-24T06:45:09.055Z,56.40
2022-11-24T06:47:37.261Z,56.21
2022-11-24T06:50:04.651Z,55.89
2022-11-24T06:52:31.244Z,55.97
2022-11-24T06:54:57.809Z,55.91
2022-11-24T06:57:24.467Z,55.95
2022-11-24T06:59:51.095Z,55.94
2022-11-24T07:02:17.644Z,56.05
2022-11-24T07:04:44.280Z,55.88
2022-11-24T07:07:11.016Z,56.35
2022-11-24T07:09:37.684Z,56.56
2022-11-24T07:12:05.886Z,56.30
2022-11-24T07:14:32.729Z,56.51
2022-11-24T07:16:59.777Z,56.39
2022-11-24T07:19:26.448Z,56.41
2022-11-24T07:21:53.040Z,56.47
2022-11-24T07:24:19.803Z,56.40
2022-11-24T07:26:46.451Z,56.40
2022-11-24T07:29:13.068Z,56.45
2022-11-24T07:31:39.815Z,56.82
2022-11-24T07:34:06.553Z,56.69
2022-11-24T07:36:33.193Z,56.36
2022-11-24T07:39:00.012Z,56.49
2022-11-24T07:41:26.689Z,56.72
2022-11-24T07:43:53.388Z,56.49
2022-11-24T07:46:20.646Z,56.50
2022-11-24T07:48:47.783Z,56.57
2022-11-24T07:51:15.867Z,56.24
2022-11-24T07:53:42.715Z,58.22
2022-11-24T07:56:09.838Z,69.74
2022-11-24T07:58:37.889Z,63.52
2022-11-24T08:01:12.633Z,60.78
2022-11-24T08:03:39.806Z,58.37
2022-11-24T08:06:24.018Z,58.71
2022-11-24T08:08:53.053Z,56.06
2022-11-24T08:11:19.739Z,55.96
2022-11-24T08:13:46.518Z,55.60
2022-11-24T08:16:15.974Z,59.16
2022-11-24T08:18:43.339Z,55.69
2022-11-24T08:21:14.202Z,57.71
2022-11-24T08:23:41.567Z,55.82
2022-11-24T08:26:13.610Z,55.68
2022-11-24T08:28:40.158Z,57.04
2022-11-24T08:31:18.946Z,55.03
2022-11-24T08:33:46.236Z,55.01
2022-11-24T08:36:17.131Z,54.59
2022-11-24T08:38:44.994Z,55.76
2022-11-24T08:41:14.330Z,54.47
2022-11-24T08:43:41.429Z,54.24
2022-11-24T08:46:11.153Z,54.80
2022-11-24T08:48:38.036Z,54.46
2022-11-24T08:51:11.012Z,54.93
2022-11-24T08:53:38.186Z,55.04
2022-11-24T08:56:06.055Z,53.90
2022-11-24T08:58:33.707Z,53.46
2022-11-24T09:01:14.943Z,54.87
2022-11-24T09:03:48.592Z,53.03
2022-11-24T09:06:18.576Z,52.81
2022-11-24T09:08:45.159Z,53.12
2022-11-24T09:11:15.213Z,53.83
2022-11-24T09:13:42.519Z,53.07
2022-11-24T09:16:12.343Z,52.90
2022-11-24T09:18:39.429Z,52.85
2022-11-24T09:21:10.680Z,53.05
2022-11-24T09:23:37.887Z,52.98
2022-11-24T09:26:11.999Z,53.58
2022-11-24T09:28:38.785Z,54.73
2022-11-24T09:31:08.484Z,54.38
2022-11-24T09:33:35.770Z,55.78
2022-11-24T09:36:03.436Z,54.75
2022-11-24T09:38:30.071Z,55.31
2022-11-24T09:41:05.732Z,56.33
2022-11-24T09:43:46.162Z,55.46
2022-11-24T09:46:41.236Z,55.88
2022-11-24T09:49:15.454Z,55.10
2022-11-24T09:51:46.790Z,54.64
2022-11-24T09:54:18.433Z,54.35
2022-11-24T09:56:46.436Z,56.61
2022-11-24T09:59:19.819Z,53.88
2022-11-24T10:01:47.822Z,53.63
2022-11-24T10:04:18.347Z,53.06
2022-11-24T10:07:12.992Z,52.61
2022-11-24T10:10:14.124Z,53.81
2022-11-24T10:12:49.828Z,53.23
2022-11-24T10:15:31.008Z,54.19
2022-11-24T10:17:57.596Z,51.95
2022-11-24T10:20:54.828Z,52.57
2022-11-24T10:23:41.252Z,52.26
2022-11-24T10:26:19.163Z,53.09
2022-11-24T10:28:53.651Z,52.88
2022-11-24T10:31:40.724Z,53.30
2022-11-24T10:34:18.597Z,53.12
2022-11-24T10:36:57.163Z,53.28
2022-11-24T10:39:34.715Z,54.00
2022-11-24T10:42:28.064Z,53.99
2022-11-24T10:45:03.063Z,54.23
2022-11-24T10:47:30.752Z,54.15
2022-11-24T10:50:04.949Z,53.80
2022-11-24T10:52:40.287Z,53.73
2022-11-24T10:55:07.314Z,53.77
2022-11-24T10:57:36.496Z,53.63
2022-11-24T11:00:25.942Z,53.62
2022-11-24T11:03:12.046Z,53.51
2022-11-24T11:05:43.980Z,53.92
2022-11-24T11:08:24.090Z,54.34
2022-11-24T11:11:11.896Z,54.49
2022-11-24T11:13:38.506Z,54.67
2022-11-24T11:16:23.606Z,54.38
2022-11-24T11:18:50.367Z,54.78
2022-11-24T11:21:35.191Z,54.69
2022-11-24T11:24:05.254Z,55.95
2022-11-24T11:26:36.313Z,55.87
2022-11-24T11:35:03.024Z,57.03
2022-11-24T11:37:32.822Z,57.08
2022-11-24T11:40:00.502Z,57.61
2022-11-24T11:43:00.777Z,58.90
2022-11-24T11:45:28.397Z,61.84
2022-11-24T11:48:17.784Z,61.55
2022-11-24T11:51:23.449Z,62.52
2022-11-24T11:54:16.979Z,62.65
2022-11-24T11:56:50.303Z,62.75
2022-11-24T11:59:41.587Z,62.73
2022-11-24T12:02:26.612Z,62.74
2022-11-24T12:04:54.174Z,62.74
2022-11-24T12:07:52.504Z,63.04
2022-11-24T12:10:42.724Z,63.11
2022-11-24T12:13:48.550Z,63.34
2022-11-24T12:16:45.612Z,63.25
2022-11-24T12:19:31.921Z,63.27
2022-11-24T12:22:04.507Z,63.59
2022-11-24T12:24:45.028Z,62.74
2022-11-24T12:27:22.822Z,63.11
2022-11-24T12:29:53.063Z,62.92
2022-11-24T12:32:41.352Z,62.98
2022-11-24T12:35:39.333Z,63.24
2022-11-24T12:38:40.167Z,64.19
2022-11-24T12:41:39.780Z,64.36
2022-11-24T12:44:00.935Z,64.71
2022-11-24T12:46:36.761Z,65.23
2022-11-24T12:49:18.833Z,65.75
2022-11-24T12:51:52.414Z,66.65
2022-11-24T12:54:21.144Z,67.28
2022-11-24T12:57:06.912Z,67.67
2022-11-24T13:00:06.068Z,67.96
2022-11-24T13:02:44.628Z,68.32
2022-11-24T13:05:46.376Z,68.96
2022-11-24T13:08:14.795Z,68.87
2022-11-24T13:10:57.997Z,70.78
2022-11-24T13:13:57.050Z,71.76
2022-11-24T13:16:53.669Z,72.92
2022-11-24T13:19:22.525Z,73.93
2022-11-24T13:21:52.721Z,74.10
2022-11-24T13:24:24.167Z,74.83
2022-11-24T13:26:52.331Z,75.21
2022-11-24T13:29:28.295Z,76.20
2022-11-24T13:31:56.015Z,76.14
2022-11-24T13:34:43.727Z,75.75
2022-11-24T13:37:31.485Z,75.89
2022-11-24T13:40:22.651Z,75.50
2022-11-24T13:42:55.364Z,75.84
2022-11-24T13:45:41.528Z,74.72
2022-11-24T13:48:20.829Z,74.56
2022-11-24T13:50:50.911Z,74.47
2022-11-24T13:53:31.945Z,75.19
2022-11-24T13:56:02.775Z,75.19
2022-11-24T13:58:32.457Z,74.28
2022-11-24T14:01:02.024Z,73.81
2022-11-24T14:03:35.194Z,73.64
2022-11-24T14:06:03.114Z,74.00
2022-11-24T14:08:36.339Z,73.71
2022-11-24T14:11:11.252Z,73.46
2022-11-24T14:13:37.824Z,72.96
2022-11-24T14:16:04.550Z,69.62
2022-11-24T14:18:33.335Z,68.12
2022-11-24T14:21:14.876Z,66.49
2022-11-24T14:23:44.618Z,65.44
2022-11-24T14:26:23.168Z,64.22
2022-11-24T14:28:50.493Z,64.12
2022-11-24T14:31:25.671Z,63.68
2022-11-24T14:34:12.310Z,62.91
2022-11-24T14:36:39.587Z,62.92
2022-11-24T14:39:06.888Z,62.85
2022-11-24T14:41:34.341Z,63.05
2022-11-24T14:44:07.472Z,62.62
2022-11-24T14:46:35.221Z,63.03
2022-11-24T14:49:03.350Z,62.70
2022-11-24T14:51:35.836Z,62.82
2022-11-24T14:54:06.277Z,62.54
2022-11-24T14:56:36.135Z,62.16
2022-11-24T14:59:04.520Z,61.92
2022-11-24T15:01:34.972Z,61.71
2022-11-24T15:07:22.906Z,59.68
2022-11-24T15:09:53.113Z,59.41
2022-11-24T15:12:28.968Z,59.10
2022-11-24T15:15:18.057Z,58.65
2022-11-24T15:18:00.236Z,58.23
2022-11-24T15:20:30.228Z,58.22
2022-11-24T15:23:23.135Z,58.42
2022-11-24T15:25:51.836Z,58.57
2022-11-24T15:28:19.622Z,58.00
2022-11-24T15:30:46.210Z,57.94
2022-11-24T15:33:15.744Z,58.29
2022-11-24T15:35:42.588Z,57.86
2022-11-24T15:38:09.728Z,58.18
2022-11-24T15:40:40.810Z,57.59
2022-11-24T15:43:36.798Z,56.54
2022-11-24T15:46:04.734Z,56.38
2022-11-24T15:48:31.856Z,56.52
2022-11-24T15:51:01.144Z,56.11
2022-11-24T15:53:32.196Z,56.27
2022-11-24T15:56:00.135Z,56.18
2022-11-24T15:58:26.730Z,56.03
2022-11-24T16:00:53.799Z,56.22
2022-11-24T16:06:12.820Z,55.64
2022-11-24T16:08:39.351Z,55.84
2022-11-24T16:11:06.087Z,55.99
2022-11-24T16:13:32.721Z,56.13
2022-11-24T16:15:59.583Z,56.13
2022-11-24T16:18:26.234Z,56.28
2022-11-24T16:20:52.875Z,56.09
2022-11-24T16:23:19.466Z,56.08
2022-11-24T16:25:46.160Z,56.09
2022-11-24T16:28:12.819Z,56.20
2022-11-24T16:30:39.443Z,55.75
2022-11-24T16:33:06.729Z,55.94
2022-11-24T16:35:33.989Z,56.11
2022-11-24T16:38:00.634Z,56.02
2022-11-24T16:40:27.183Z,55.44
2022-11-24T16:42:56.245Z,55.09
2022-11-24T16:45:22.911Z,55.33
2022-11-24T16:47:49.551Z,55.39
2022-11-24T16:50:16.232Z,55.41
2022-11-24T16:52:42.900Z,55.33
2022-11-24T16:55:11.677Z,55.62
2022-11-24T16:57:38.339Z,55.84
2022-11-24T17:00:06.171Z,56.03
2022-11-24T17:02:34.100Z,56.27
2022-11-24T17:05:00.989Z,56.84
2022-11-24T17:07:27.664Z,57.16
2022-11-24T17:09:54.404Z,57.59
2022-11-24T17:12:21.010Z,57.77
2022-11-24T17:15:09.385Z,57.74
2022-11-24T17:17:34.512Z,58.17
2022-11-24T17:20:01.131Z,58.30
2022-11-24T17:22:28.019Z,58.54
2022-11-24T17:24:54.603Z,58.51
2022-11-24T17:27:21.163Z,58.75
2022-11-24T17:29:47.801Z,58.77
2022-11-24T17:32:14.464Z,58.64
2022-11-24T17:34:41.159Z,58.78
2022-11-24T17:37:07.783Z,58.96
2022-11-24T17:39:34.389Z,58.60
2022-11-24T17:42:01.037Z,58.76
2022-11-24T17:44:27.698Z,58.75
2022-11-24T17:46:54.335Z,58.79
2022-11-24T17:49:21.261Z,58.48
2022-11-24T17:51:50.549Z,58.56
2022-11-24T17:57:05.121Z,58.59
2022-11-24T17:59:31.743Z,58.72
2022-11-24T18:01:58.459Z,58.65
2022-11-24T18:04:25.099Z,58.61
2022-11-24T18:06:51.725Z,58.43
2022-11-24T18:09:18.281Z,58.64
2022-11-24T18:11:45.072Z,58.71
2022-11-24T18:14:11.684Z,58.61
2022-11-24T18:16:38.436Z,58.53
2022-11-24T18:19:10.751Z,58.56
2022-11-24T18:21:42.231Z,58.60
2022-11-24T18:24:10.654Z,58.05
2022-11-24T18:26:38.075Z,58.26
2022-11-24T18:29:04.934Z,58.69
2022-11-24T18:31:32.390Z,58.73
2022-11-24T18:33:59.298Z,58.45
2022-11-24T18:36:30.286Z,58.52
2022-11-24T18:39:01.991Z,58.37
2022-11-24T18:41:28.928Z,58.17
2022-11-24T18:43:55.568Z,58.36
2022-11-24T18:46:22.302Z,58.10
2022-11-24T18:48:49.112Z,58.13
2022-11-24T18:51:15.841Z,58.09
2022-11-24T18:53:44.292Z,57.85
2022-11-24T18:56:16.491Z,57.50
2022-11-24T18:58:44.091Z,57.42
2022-11-24T19:01:16.031Z,57.24
2022-11-24T19:03:48.640Z,57.13
2022-11-24T19:06:20.053Z,57.14
2022-11-24T19:08:47.108Z,57.11
2022-11-24T19:11:18.828Z,57.15
2022-11-24T19:13:45.468Z,57.05
2022-11-24T19:16:12.668Z,57.43
2022-11-24T19:18:39.640Z,57.35
2022-11-24T19:21:06.847Z,57.33
2022-11-24T19:23:33.543Z,57.06
2022-11-24T19:26:04.613Z,57.56
2022-11-24T19:28:31.383Z,57.79
2022-11-24T19:31:01.726Z,56.98
2022-11-24T19:33:28.349Z,56.95
2022-11-24T19:36:27.523Z,56.54
2022-11-24T19:38:56.176Z,56.57
2022-11-24T19:41:26.045Z,56.42
2022-11-24T19:43:55.689Z,56.25
2022-11-24T19:46:26.246Z,56.40
2022-11-24T19:48:59.786Z,56.25
2022-11-24T19:51:31.882Z,56.45
2022-11-24T19:53:59.243Z,56.05
2022-11-24T19:56:31.476Z,56.03
2022-11-24T19:58:58.028Z,55.63
2022-11-24T20:01:30.606Z,55.45
2022-11-24T20:04:03.554Z,55.19
2022-11-24T20:06:51.548Z,54.97
2022-11-24T20:09:18.534Z,55.09
2022-11-24T20:11:45.518Z,55.57
2022-11-24T20:14:13.533Z,55.26
2022-11-24T20:16:40.756Z,55.23
2022-11-24T20:19:12.343Z,55.35
2022-11-24T20:21:40.106Z,55.35
2022-11-24T20:24:10.956Z,55.35
2022-11-24T20:26:43.419Z,55.20
2022-11-24T20:29:12.880Z,55.58
2022-11-24T20:31:42.093Z,55.53
2022-11-24T20:34:09.272Z,55.26
2022-11-24T20:36:38.299Z,55.21
2022-11-24T20:39:09.701Z,55.59
2022-11-24T20:41:39.638Z,55.51
2022-11-24T20:44:08.853Z,55.46
2022-11-24T20:46:37.969Z,55.58
2022-11-24T20:49:06.611Z,55.95
2022-11-24T20:51:36.536Z,56.01
2022-11-24T20:54:06.599Z,56.12
2022-11-24T20:56:39.835Z,56.49
2022-11-24T20:59:07.478Z,56.51
2022-11-24T21:01:40.026Z,56.42
2022-11-24T21:04:09.801Z,57.06
2022-11-24T21:06:37.273Z,57.27
2022-11-24T21:09:05.754Z,57.83
2022-11-24T21:11:32.857Z,58.01
2022-11-24T21:14:00.842Z,58.41
2022-11-24T21:16:30.284Z,58.93
2022-11-24T21:18:59.288Z,58.80
2022-11-24T21:21:33.290Z,59.30
2022-11-24T21:24:01.613Z,59.06
2022-11-24T21:26:28.317Z,59.38
2022-11-24T21:28:55.000Z,59.34
2022-11-24T21:31:23.386Z,59.73
2022-11-24T21:33:54.521Z,59.30
2022-11-24T21:36:23.803Z,59.26
2022-11-24T21:38:55.143Z,59.48
2022-11-24T21:41:23.134Z,59.45
2022-11-24T21:43:50.326Z,59.46
2022-11-24T21:46:17.535Z,59.52
2022-11-24T21:48:44.835Z,59.65
2022-11-24T21:51:16.350Z,59.37
2022-11-24T21:53:44.727Z,59.37
2022-11-24T21:56:17.112Z,59.29
2022-11-24T21:58:55.329Z,59.72
2022-11-24T22:01:25.968Z,59.67
2022-11-24T22:03:53.010Z,59.67
2022-11-24T22:06:20.833Z,59.81
2022-11-24T22:08:48.907Z,59.83
2022-11-24T22:11:18.447Z,59.48
2022-11-24T22:13:45.676Z,59.77
2022-11-24T22:16:15.389Z,59.92
2022-11-24T22:18:43.539Z,59.73
2022-11-24T22:21:18.570Z,59.73
2022-11-24T22:23:45.514Z,59.45
2022-11-24T22:26:15.280Z,60.00
2022-11-24T22:28:43.404Z,59.73
2022-11-24T22:31:24.001Z,59.70
2022-11-24T22:33:51.837Z,59.62
2022-11-24T22:36:23.263Z,59.29
2022-11-24T22:38:57.564Z,59.60
2022-11-24T22:41:25.953Z,59.56
2022-11-24T22:43:53.573Z,59.44
2022-11-24T22:46:26.140Z,59.28
2022-11-24T22:48:54.348Z,59.88
2022-11-24T22:51:23.448Z,59.43
2022-11-24T22:53:52.891Z,59.40
2022-11-24T22:56:20.338Z,59.24
2022-11-24T22:58:47.647Z,59.66
2022-11-24T23:01:19.684Z,59.46
2022-11-24T23:03:46.852Z,59.26
2022-11-24T23:06:15.972Z,59.64
2022-11-24T23:08:43.627Z,59.80
2022-11-24T23:11:16.352Z,59.64
2022-11-24T23:13:43.207Z,60.00
2022-11-24T23:16:11.392Z,59.80
2022-11-24T23:18:38.749Z,60.26
2022-11-24T23:21:14.405Z,60.57
2022-11-24T23:23:44.293Z,60.35
2022-11-24T23:26:16.462Z,60.01
2022-11-24T23:28:45.278Z,59.98
2022-11-24T23:31:15.005Z,60.09
2022-11-24T23:33:42.237Z,60.28
2022-11-24T23:36:12.593Z,60.26
2022-11-24T23:38:40.757Z,60.56
2022-11-24T23:41:13.412Z,60.12
2022-11-24T23:43:42.387Z,60.32
2022-11-24T23:46:11.741Z,60.26
2022-11-24T23:48:42.036Z,60.18
2022-11-24T23:51:16.709Z,60.29
2022-11-24T23:53:44.322Z,60.53
2022-11-24T23:56:21.963Z,60.71
2022-11-24T23:58:49.006Z,60.35
